Time;durP1;ratioP1;P1;durP2;ratioP2;P2;SDS_P1;SDS_P2;PMS_P1;PMS_P2;Temp;Humidity;BMP_temperature;BMP_pressure;BME280_temperature;BME280_humidity;BME280_pressure;Samples;Min_cycle;Max_cycle;Signal;HPM_P1;HPM_P2
2023/01/01 00:02:32;;;;;;;6.43;5.75;;;;;;;;;;10542208;28;20205;-89
2023/01/01 00:07:33;;;;;;;11.52;6.22;;;;;;;;;;10539163;28;20217;-91
2023/01/01 00:12:34;;;;;;;6.85;4.78;;;;;;;;;;10543827;28;20214;-92
2023/01/01 00:17:35;;;;;;;11.25;5.88;;;;;;;;;;10539145;28;20218;-91
2023/01/01 00:22:36;;;;;;;10.07;6.10;;;;;;;;;;10524859;28;20236;-89
2023/01/01 00:27:37;;;;;;;4.15;3.92;;;;;;;;;;10524796;28;20222;-92
2023/01/01 00:32:38;;;;;;;4.82;3.90;;;;;;;;;;10542943;28;20217;-90
2023/01/01 00:37:39;;;;;;;6.28;4.30;;;;;;;;;;10520960;28;20229;-90
2023/01/01 00:42:40;;;;;;;8.88;4.72;;;;;;;;;;10534723;28;20210;-90
2023/01/01 00:47:41;;;;;;;5.95;4.03;;;;;;;;;;10539153;28;20558;-88
2023/01/01 00:52:42;;;;;;;4.00;3.30;;;;;;;;;;10522270;28;20253;-91
2023/01/01 00:57:44;;;;;;;4.53;3.33;;;;;;;;;;10542099;28;20216;-90
2023/01/01 01:02:45;;;;;;;4.82;2.75;;;;;;;;;;10537195;28;20224;-90
2023/01/01 01:07:46;;;;;;;3.55;2.40;;;;;;;;;;10535799;28;20248;-89
2023/01/01 01:12:47;;;;;;;8.82;2.60;;;;;;;;;;10526771;28;20213;-91
2023/01/01 01:17:49;;;;;;;6.97;2.35;;;;;;;;;;10515756;28;20217;-90
2023/01/01 01:22:50;;;;;;;6.40;2.13;;;;;;;;;;10514806;28;20225;-90
2023/01/01 01:27:51;;;;;;;11.25;2.22;;;;;;;;;;10517215;28;20248;-88
2023/01/01 01:32:52;;;;;;;6.22;1.73;;;;;;;;;;10526023;28;20221;-86
2023/01/01 01:37:53;;;;;;;1.60;1.50;;;;;;;;;;10523863;28;20304;-88
2023/01/01 01:42:54;;;;;;;3.25;1.80;;;;;;;;;;10520884;28;20239;-88
2023/01/01 01:47:57;;;;;;;7.60;1.42;;;;;;;;;;10520893;28;20224;-88
2023/01/01 01:53:06;;;;;;;3.45;1.00;;;;;;;;;;10522949;28;20217;-88
2023/01/01 01:58:09;;;;;;;1.55;1.40;;;;;;;;;;10530046;28;20233;-88
2023/01/01 02:03:22;;;;;;;3.40;1.17;;;;;;;;;;10531110;28;20201;-89
2023/01/01 02:08:23;;;;;;;1.98;0.75;;;;;;;;;;10529936;28;20218;-89
2023/01/01 02:13:24;;;;;;;1.75;1.08;;;;;;;;;;10533388;28;20217;-90
2023/01/01 02:18:28;;;;;;;0.73;0.63;;;;;;;;;;10535040;28;20209;-88
2023/01/01 02:23:35;;;;;;;9.30;1.45;;;;;;;;;;10530194;28;20225;-90
2023/01/01 02:28:53;;;;;;;1.70;0.80;;;;;;;;;;10525372;28;20730;-87
2023/01/01 02:33:56;;;;;;;2.03;0.88;;;;;;;;;;10530206;28;20703;-89
2023/01/01 02:38:58;;;;;;;2.78;1.00;;;;;;;;;;10519516;28;20209;-86
2023/01/01 02:43:59;;;;;;;3.38;0.90;;;;;;;;;;10542925;28;20221;-92
2023/01/01 02:49:01;;;;;;;6.43;0.70;;;;;;;;;;10544728;28;20209;-90
2023/01/01 02:54:08;;;;;;;3.60;1.00;;;;;;;;;;10535676;28;20864;-88
2023/01/01 03:04:40;;;;;;;4.88;1.17;;;;;;;;;;10534736;28;20244;-88
2023/01/01 03:09:54;;;;;;;3.15;1.10;;;;;;;;;;10512257;28;20230;-90
2023/01/01 03:14:58;;;;;;;5.63;0.90;;;;;;;;;;10510266;28;20210;-87
2023/01/01 03:20:02;;;;;;;2.60;0.82;;;;;;;;;;10530826;28;20218;-87
2023/01/01 03:25:06;;;;;;;5.28;0.98;;;;;;;;;;10520596;28;20225;-89
2023/01/01 03:30:10;;;;;;;2.67;1.20;;;;;;;;;;10527312;28;20174;-86
2023/01/01 03:35:12;;;;;;;2.80;1.23;;;;;;;;;;10536728;28;20226;-88
2023/01/01 03:40:14;;;;;;;5.15;1.05;;;;;;;;;;10520509;28;20186;-88
2023/01/01 03:45:32;;;;;;;1.83;1.27;;;;;;;;;;10536579;28;20198;-85
2023/01/01 03:50:45;;;;;;;1.45;1.05;;;;;;;;;;10527558;28;20217;-90
2023/01/01 03:55:49;;;;;;;1.23;1.17;;;;;;;;;;10537667;28;20205;-89
2023/01/01 04:00:55;;;;;;;1.90;0.90;;;;;;;;;;10526671;28;20213;-90
2023/01/01 04:05:56;;;;;;;2.30;0.93;;;;;;;;;;10525891;28;20697;-89
2023/01/01 04:10:59;;;;;;;4.00;1.15;;;;;;;;;;10511935;28;20229;-88
2023/01/01 04:16:00;;;;;;;1.10;1.00;;;;;;;;;;10529148;28;20273;-90
2023/01/01 04:21:01;;;;;;;2.10;1.13;;;;;;;;;;10521218;28;20218;-88
2023/01/01 04:26:02;;;;;;;2.78;1.05;;;;;;;;;;10509513;28;20991;-86
2023/01/01 04:31:03;;;;;;;5.47;1.45;;;;;;;;;;10536633;28;20238;-85
2023/01/01 04:36:05;;;;;;;2.28;0.85;;;;;;;;;;10530791;28;20716;-87
2023/01/01 04:41:07;;;;;;;1.58;1.23;;;;;;;;;;10538183;28;20270;-87
2023/01/01 04:46:08;;;;;;;3.85;1.35;;;;;;;;;;10530616;28;20282;-90
2023/01/01 04:51:10;;;;;;;5.45;1.27;;;;;;;;;;10515691;28;20221;-89
2023/01/01 04:56:13;;;;;;;3.33;0.98;;;;;;;;;;10517215;28;20221;-86
2023/01/01 05:01:15;;;;;;;4.38;1.77;;;;;;;;;;10528480;28;20275;-89
2023/01/01 05:06:17;;;;;;;1.40;1.00;;;;;;;;;;10530320;28;20724;-87
2023/01/01 05:11:20;;;;;;;3.40;0.90;;;;;;;;;;10530605;28;20224;-89
2023/01/01 05:16:22;;;;;;;1.45;1.08;;;;;;;;;;10531241;28;20215;-87
2023/01/01 05:21:42;;;;;;;0.75;0.75;;;;;;;;;;10530672;28;20221;-86
2023/01/01 05:26:45;;;;;;;1.77;0.95;;;;;;;;;;10510070;28;20221;-87
2023/01/01 05:31:46;;;;;;;1.10;0.98;;;;;;;;;;10528579;28;20210;-88
2023/01/01 05:36:47;;;;;;;1.40;1.10;;;;;;;;;;10520472;28;20233;-88
2023/01/01 05:41:48;;;;;;;5.18;1.33;;;;;;;;;;10510130;28;20283;-89
2023/01/01 05:46:49;;;;;;;2.25;1.15;;;;;;;;;;10516057;28;20239;-90
2023/01/01 05:51:50;;;;;;;1.15;1.13;;;;;;;;;;10529599;28;20273;-88
2023/01/01 05:56:51;;;;;;;1.48;1.23;;;;;;;;;;10529963;28;20213;-88
2023/01/01 06:01:52;;;;;;;1.00;1.00;;;;;;;;;;10521031;28;20295;-88
2023/01/01 06:06:53;;;;;;;1.60;1.00;;;;;;;;;;10506182;28;20218;-87
2023/01/01 06:11:54;;;;;;;1.67;1.13;;;;;;;;;;10525820;28;20285;-89
2023/01/01 06:16:55;;;;;;;4.25;1.38;;;;;;;;;;10518837;28;20240;-87
2023/01/01 06:21:56;;;;;;;1.45;1.35;;;;;;;;;;10520042;28;20305;-86
2023/01/01 06:26:57;;;;;;;2.75;1.48;;;;;;;;;;10520120;28;20222;-89
2023/01/01 06:31:58;;;;;;;3.47;1.50;;;;;;;;;;10515317;28;20269;-86
2023/01/01 06:36:59;;;;;;;1.73;1.63;;;;;;;;;;10498667;28;20284;-85
2023/01/01 06:42:00;;;;;;;1.60;1.33;;;;;;;;;;10503061;28;20287;-86
2023/01/01 06:47:01;;;;;;;2.30;1.30;;;;;;;;;;10494670;28;20744;-86
2023/01/01 06:52:02;;;;;;;3.92;1.50;;;;;;;;;;10514551;28;20221;-87
2023/01/01 06:57:04;;;;;;;1.80;1.27;;;;;;;;;;10515295;28;20209;-86
2023/01/01 07:02:05;;;;;;;1.30;1.20;;;;;;;;;;10519293;28;20213;-87
2023/01/01 07:07:06;;;;;;;1.63;1.60;;;;;;;;;;10519080;28;20268;-87
2023/01/01 07:12:07;;;;;;;2.10;1.98;;;;;;;;;;10512912;28;20224;-86
2023/01/01 07:17:08;;;;;;;3.15;1.30;;;;;;;;;;10523988;28;20643;-86
2023/01/01 07:22:10;;;;;;;2.15;1.40;;;;;;;;;;10523036;28;20217;-83
2023/01/01 07:27:11;;;;;;;1.73;1.63;;;;;;;;;;10525911;28;20226;-87
2023/01/01 07:32:13;;;;;;;2.97;1.48;;;;;;;;;;10528460;28;20216;-86
2023/01/01 07:37:14;;;;;;;4.22;2.08;;;;;;;;;;10520327;28;20222;-88
2023/01/01 07:42:15;;;;;;;1.92;1.80;;;;;;;;;;10528546;28;20210;-86
2023/01/01 07:47:24;;;;;;;3.25;1.92;;;;;;;;;;10507518;28;20685;-87
2023/01/01 07:52:25;;;;;;;2.17;1.70;;;;;;;;;;10512349;28;20224;-86
2023/01/01 07:57:26;;;;;;;6.28;1.95;;;;;;;;;;10522228;28;20232;-88
2023/01/01 08:02:27;;;;;;;4.05;1.92;;;;;;;;;;10509011;28;20607;-85
2023/01/01 08:07:28;;;;;;;2.05;1.77;;;;;;;;;;10518015;28;20214;-84
2023/01/01 08:12:29;;;;;;;4.88;1.83;;;;;;;;;;10523917;28;20308;-86
2023/01/01 08:17:30;;;;;;;1.85;1.70;;;;;;;;;;10500078;28;20756;-85
2023/01/01 08:22:31;;;;;;;2.72;2.10;;;;;;;;;;10509264;28;20294;-84
2023/01/01 08:27:32;;;;;;;3.47;1.58;;;;;;;;;;10516021;28;20304;-80
2023/01/01 08:32:33;;;;;;;1.83;1.70;;;;;;;;;;10513508;28;20263;-79
2023/01/01 08:37:34;;;;;;;2.67;2.30;;;;;;;;;;10512264;28;20222;-81
2023/01/01 08:42:35;;;;;;;2.22;2.10;;;;;;;;;;10508807;28;20205;-81
2023/01/01 08:47:36;;;;;;;1.60;1.50;;;;;;;;;;10513629;28;20580;-83
2023/01/01 08:52:37;;;;;;;2.78;1.63;;;;;;;;;;10512895;28;20739;-80
2023/01/01 08:57:38;;;;;;;4.32;2.15;;;;;;;;;;10516337;28;20237;-81
2023/01/01 09:02:39;;;;;;;2.90;2.17;;;;;;;;;;10509973;28;20233;-82
2023/01/01 09:07:40;;;;;;;1.58;1.48;;;;;;;;;;10496201;28;20596;-77
2023/01/01 09:12:41;;;;;;;6.57;1.90;;;;;;;;;;10490763;28;20213;-80
2023/01/01 09:17:42;;;;;;;2.22;1.70;;;;;;;;;;10512085;28;20210;-80
2023/01/01 09:22:43;;;;;;;4.70;1.63;;;;;;;;;;10511687;28;20215;-79
2023/01/01 09:27:44;;;;;;;2.03;1.27;;;;;;;;;;10518249;28;20228;-80
2023/01/01 09:32:46;;;;;;;1.58;1.48;;;;;;;;;;10507661;28;20236;-80
2023/01/01 09:37:47;;;;;;;1.17;1.17;;;;;;;;;;10508913;28;20225;-80
2023/01/01 09:42:50;;;;;;;2.45;1.23;;;;;;;;;;10494924;28;20601;-82
2023/01/01 09:48:02;;;;;;;4.07;1.15;;;;;;;;;;10501670;28;20224;-82
2023/01/01 09:53:05;;;;;;;1.45;1.05;;;;;;;;;;10493771;28;20221;-80
2023/01/01 09:58:09;;;;;;;1.75;1.65;;;;;;;;;;10505252;28;20240;-80
2023/01/01 10:03:17;;;;;;;3.20;1.48;;;;;;;;;;10514854;28;20218;-83
2023/01/01 10:08:27;;;;;;;1.90;1.65;;;;;;;;;;10497225;28;20225;-83
2023/01/01 10:13:31;;;;;;;2.40;1.08;;;;;;;;;;10509893;28;20301;-77
2023/01/01 10:18:35;;;;;;;0.75;0.75;;;;;;;;;;10505614;28;20234;-77
2023/01/01 10:23:52;;;;;;;1.75;0.90;;;;;;;;;;10502966;28;20601;-74
2023/01/01 10:29:08;;;;;;;1.55;1.00;;;;;;;;;;10509416;28;20217;-76
2023/01/01 10:34:17;;;;;;;1.55;1.13;;;;;;;;;;10505616;28;20306;-73
2023/01/01 10:39:18;;;;;;;1.98;1.25;;;;;;;;;;10499273;28;20457;-78
2023/01/01 10:44:25;;;;;;;2.15;1.17;;;;;;;;;;10500992;28;20216;-77
2023/01/01 10:49:28;;;;;;;2.50;1.08;;;;;;;;;;10508003;28;20257;-76
2023/01/01 10:54:32;;;;;;;0.98;0.90;;;;;;;;;;10514349;28;20214;-75
2023/01/01 10:59:35;;;;;;;1.95;0.90;;;;;;;;;;10509674;28;20236;-75
2023/01/01 11:04:36;;;;;;;1.33;1.20;;;;;;;;;;10506984;28;20315;-77
2023/01/01 11:09:38;;;;;;;1.35;0.90;;;;;;;;;;10512786;28;20221;-83
2023/01/01 11:14:48;;;;;;;2.78;1.00;;;;;;;;;;10520424;28;20591;-83
2023/01/01 11:19:49;;;;;;;4.45;0.80;;;;;;;;;;10519434;28;20232;-84
2023/01/01 11:25:00;;;;;;;6.28;0.95;;;;;;;;;;10499292;28;20218;-85
2023/01/01 11:30:20;;;;;;;2.40;1.15;;;;;;;;;;10513063;28;20210;-83
2023/01/01 11:35:22;;;;;;;1.08;0.80;;;;;;;;;;10496314;28;20278;-85
2023/01/01 11:40:25;;;;;;;1.08;1.02;;;;;;;;;;10509115;28;20211;-81
2023/01/01 11:45:29;;;;;;;1.45;0.80;;;;;;;;;;10511414;28;20658;-84
2023/01/01 11:50:41;;;;;;;1.25;1.15;;;;;;;;;;10498655;28;20708;-83
2023/01/01 11:55:45;;;;;;;1.42;1.10;;;;;;;;;;10512790;28;20228;-85
2023/01/01 12:00:47;;;;;;;2.05;1.35;;;;;;;;;;10502659;28;20259;-84
2023/01/01 12:05:50;;;;;;;5.63;0.88;;;;;;;;;;10506441;28;20454;-88
2023/01/01 12:10:53;;;;;;;0.75;0.75;;;;;;;;;;10524385;28;20214;-89
2023/01/01 12:16:01;;;;;;;2.50;0.98;;;;;;;;;;10512312;28;20221;-89
2023/01/01 12:21:14;;;;;;;2.30;1.25;;;;;;;;;;10527866;28;20217;-89
2023/01/01 12:26:21;;;;;;;0.82;0.82;;;;;;;;;;10527003;28;20232;-90
2023/01/01 12:31:31;;;;;;;1.83;1.00;;;;;;;;;;10522708;28;20206;-90
2023/01/01 12:36:44;;;;;;;2.63;0.68;;;;;;;;;;10505105;28;21101;-89
2023/01/01 12:41:57;;;;;;;4.97;2.80;;;;;;;;;;10527608;28;20262;-88
2023/01/01 12:47:03;;;;;;;1.80;1.02;;;;;;;;;;10506878;28;20234;-88
2023/01/01 12:52:20;;;;;;;1.10;1.10;;;;;;;;;;10509776;28;20218;-87
2023/01/01 12:57:40;;;;;;;1.95;1.10;;;;;;;;;;10513036;28;20275;-86
2023/01/01 13:02:46;;;;;;;2.83;0.50;;;;;;;;;;10504138;28;20217;-87
2023/01/01 13:07:50;;;;;;;2.15;0.90;;;;;;;;;;10482535;28;20229;-87
2023/01/01 13:12:52;;;;;;;1.35;1.00;;;;;;;;;;10524402;28;20214;-88
2023/01/01 13:17:53;;;;;;;3.10;0.70;;;;;;;;;;10511426;28;20336;-90
2023/01/01 13:22:55;;;;;;;0.80;0.80;;;;;;;;;;10525726;28;20239;-89
2023/01/01 13:27:56;;;;;;;0.52;0.52;;;;;;;;;;10528192;28;20213;-90
2023/01/01 13:33:15;;;;;;;0.65;0.40;;;;;;;;;;10524892;28;20734;-90
2023/01/01 13:38:35;;;;;;;1.23;0.57;;;;;;;;;;10527547;28;20244;-87
2023/01/01 13:43:36;;;;;;;0.52;0.52;;;;;;;;;;10505884;28;20236;-82
2023/01/01 13:48:47;;;;;;;1.50;0.80;;;;;;;;;;10490666;28;20214;-84
2023/01/01 13:53:58;;;;;;;2.38;0.70;;;;;;;;;;10490577;28;20721;-84
2023/01/01 13:59:09;;;;;;;3.33;0.98;;;;;;;;;;10503819;28;20217;-85
2023/01/01 14:04:37;;;;;;;9.50;6.40;;;;;;;;;;10513997;28;20693;-90
2023/01/01 14:09:38;;;;;;;3.60;1.30;;;;;;;;;;10499994;28;20214;-78
2023/01/01 14:14:39;;;;;;;2.70;2.47;;;;;;;;;;10505297;28;20217;-81
2023/01/01 14:19:41;;;;;;;2.58;2.38;;;;;;;;;;10501804;28;20214;-79
2023/01/01 14:24:44;;;;;;;3.03;2.03;;;;;;;;;;10511895;28;20228;-78
2023/01/01 14:29:47;;;;;;;4.15;2.55;;;;;;;;;;10509902;28;20713;-79
2023/01/01 14:34:57;;;;;;;3.55;3.05;;;;;;;;;;10503494;28;20253;-82
2023/01/01 14:40:28;;;;;;;2.47;2.38;;;;;;;;;;10498482;28;20217;-81
2023/01/01 14:45:29;;;;;;;2.97;2.78;;;;;;;;;;10502650;28;20228;-80
2023/01/01 14:50:32;;;;;;;3.10;2.25;;;;;;;;;;10490259;28;20201;-80
2023/01/01 14:55:38;;;;;;;1.45;1.35;;;;;;;;;;10498877;28;20214;-80
2023/01/01 15:00:39;;;;;;;7.70;1.63;;;;;;;;;;10484769;28;20724;-81
2023/01/01 15:05:41;;;;;;;0.70;0.70;;;;;;;;;;10501006;28;20348;-80
2023/01/01 15:10:43;;;;;;;0.93;0.93;;;;;;;;;;10505518;28;20213;-80
2023/01/01 15:15:45;;;;;;;2.20;0.70;;;;;;;;;;10497303;28;21073;-81
2023/01/01 15:20:52;;;;;;;1.20;0.88;;;;;;;;;;10490283;28;20569;-80
2023/01/01 15:25:53;;;;;;;1.98;1.30;;;;;;;;;;10491946;28;20735;-75
2023/01/01 15:30:55;;;;;;;2.90;2.25;;;;;;;;;;10490519;28;20225;-75
2023/01/01 15:36:01;;;;;;;3.55;2.35;;;;;;;;;;10508869;28;24096;-82
2023/01/01 15:41:22;;;;;;;1.42;0.93;;;;;;;;;;10512504;28;20248;-81
2023/01/01 15:46:29;;;;;;;1.55;1.45;;;;;;;;;;10516091;28;20217;-83
2023/01/01 15:51:30;;;;;;;3.40;3.10;;;;;;;;;;10510397;28;20210;-82
2023/01/01 15:56:32;;;;;;;3.75;2.67;;;;;;;;;;10513709;28;20216;-82
2023/01/01 16:01:37;;;;;;;7.20;5.88;;;;;;;;;;10499546;28;20206;-81
2023/01/01 16:06:43;;;;;;;5.30;4.20;;;;;;;;;;10506881;28;20231;-80
2023/01/01 16:11:44;;;;;;;5.53;2.90;;;;;;;;;;10506407;28;20296;-80
2023/01/01 16:16:48;;;;;;;7.75;6.07;;;;;;;;;;10518903;28;20225;-80
2023/01/01 16:21:50;;;;;;;3.20;3.00;;;;;;;;;;10514470;28;20213;-80
2023/01/01 16:26:51;;;;;;;5.50;4.65;;;;;;;;;;10503983;28;20609;-81
2023/01/01 16:31:52;;;;;;;4.18;3.60;;;;;;;;;;10508091;28;20249;-81
2023/01/01 16:36:53;;;;;;;3.03;2.85;;;;;;;;;;10508288;28;20226;-81
2023/01/01 16:41:56;;;;;;;2.50;2.30;;;;;;;;;;10499400;28;20213;-81
2023/01/01 16:46:57;;;;;;;2.55;2.35;;;;;;;;;;10499338;28;20334;-76
2023/01/01 16:51:58;;;;;;;6.82;3.70;;;;;;;;;;10509490;28;20217;-75
2023/01/01 16:56:59;;;;;;;3.42;2.95;;;;;;;;;;10510725;28;20222;-82
2023/01/01 17:02:00;;;;;;;7.85;5.80;;;;;;;;;;10498227;28;20758;-74
2023/01/01 17:07:01;;;;;;;11.75;8.50;;;;;;;;;;10493423;28;20209;-80
2023/01/01 17:12:02;;;;;;;18.05;10.65;;;;;;;;;;10496143;28;20693;-72
2023/01/01 17:17:03;;;;;;;13.88;10.57;;;;;;;;;;10507976;28;20213;-81
2023/01/01 17:22:04;;;;;;;11.77;9.48;;;;;;;;;;10505762;28;20320;-81
2023/01/01 17:27:05;;;;;;;17.75;11.30;;;;;;;;;;10503159;28;20607;-80
2023/01/01 17:32:06;;;;;;;13.55;7.90;;;;;;;;;;10511136;28;20220;-81
2023/01/01 17:37:07;;;;;;;9.57;7.00;;;;;;;;;;10506041;28;20703;-81
2023/01/01 17:42:09;;;;;;;6.57;6.10;;;;;;;;;;10503247;28;20697;-80
2023/01/01 17:47:10;;;;;;;7.75;6.07;;;;;;;;;;10488895;28;20218;-80
2023/01/01 17:52:11;;;;;;;7.57;5.63;;;;;;;;;;10498167;28;20217;-79
2023/01/01 17:57:13;;;;;;;10.82;6.03;;;;;;;;;;10509375;28;20596;-79
2023/01/01 18:02:14;;;;;;;6.68;4.63;;;;;;;;;;10492041;28;20225;-81
2023/01/01 18:07:15;;;;;;;6.45;5.13;;;;;;;;;;10510375;28;20580;-79
2023/01/01 18:12:16;;;;;;;6.65;3.95;;;;;;;;;;10511569;28;20629;-80
2023/01/01 18:17:17;;;;;;;4.10;3.80;;;;;;;;;;10507070;28;20213;-80
2023/01/01 18:22:19;;;;;;;7.22;3.75;;;;;;;;;;10489311;28;20231;-74
2023/01/01 18:27:20;;;;;;;4.57;3.40;;;;;;;;;;10506190;28;20217;-93
2023/01/01 18:32:21;;;;;;;15.82;6.90;;;;;;;;;;10512211;28;20571;-74
2023/01/01 18:37:22;;;;;;;39.10;23.95;;;;;;;;;;10498938;28;20276;-74
2023/01/01 18:42:38;;;;;;;38.25;24.42;;;;;;;;;;10499457;28;20580;-73
2023/01/01 18:47:39;;;;;;;13.63;11.43;;;;;;;;;;10496366;28;20221;-76
2023/01/01 18:52:40;;;;;;;7.75;5.57;;;;;;;;;;10501274;28;20844;-75
2023/01/01 18:57:43;;;;;;;4.30;3.67;;;;;;;;;;10488978;28;20209;-77
2023/01/01 19:02:45;;;;;;;3.28;2.63;;;;;;;;;;10497546;28;20669;-87
2023/01/01 19:07:55;;;;;;;2.33;2.22;;;;;;;;;;10505942;28;20562;-87
2023/01/01 19:12:56;;;;;;;2.90;2.25;;;;;;;;;;10513034;28;20222;-88
2023/01/01 19:17:57;;;;;;;1.80;1.80;;;;;;;;;;10516269;28;20304;-86
2023/01/01 19:22:58;;;;;;;4.63;2.25;;;;;;;;;;10509097;28;20612;-94
2023/01/01 19:28:14;;;;;;;6.00;2.22;;;;;;;;;;10499468;28;20229;-78
2023/01/01 19:33:15;;;;;;;2.95;1.55;;;;;;;;;;10504871;28;20229;-76
2023/01/01 19:38:16;;;;;;;2.97;1.60;;;;;;;;;;10513692;28;20575;-77
2023/01/01 19:43:19;;;;;;;4.35;2.03;;;;;;;;;;10507326;28;20229;-78
2023/01/01 19:48:20;;;;;;;1.63;1.60;;;;;;;;;;10507375;28;20359;-79
2023/01/01 19:53:21;;;;;;;3.38;1.35;;;;;;;;;;10512467;28;20201;-81
2023/01/01 19:58:22;;;;;;;2.70;1.88;;;;;;;;;;10487782;28;20210;-74
2023/01/01 20:03:23;;;;;;;1.80;1.77;;;;;;;;;;10499335;28;20213;-79
2023/01/01 20:08:25;;;;;;;5.03;3.05;;;;;;;;;;10501316;28;20217;-76
2023/01/01 20:13:26;;;;;;;2.58;2.38;;;;;;;;;;10483111;28;20305;-76
2023/01/01 20:18:28;;;;;;;6.72;2.42;;;;;;;;;;10496506;28;20723;-75
2023/01/01 20:23:29;;;;;;;3.33;2.05;;;;;;;;;;10497449;28;20271;-79
2023/01/01 20:33:50;;;;;;;4.95;2.20;;;;;;;;;;10496817;28;20977;-81
2023/01/01 20:38:51;;;;;;;2.53;1.77;;;;;;;;;;10498564;28;20214;-85
2023/01/01 20:43:53;;;;;;;2.05;1.45;;;;;;;;;;10481791;28;20752;-78
2023/01/01 20:48:54;;;;;;;3.33;1.40;;;;;;;;;;10484249;28;20233;-76
2023/01/01 20:53:55;;;;;;;3.35;1.95;;;;;;;;;;10480262;28;20214;-75
2023/01/01 20:58:56;;;;;;;2.97;2.78;;;;;;;;;;10496441;28;20241;-73
2023/01/01 21:03:57;;;;;;;5.70;3.13;;;;;;;;;;10486467;28;20781;-79
2023/01/01 21:08:58;;;;;;;1.63;1.23;;;;;;;;;;10500219;28;20228;-90
2023/01/01 21:13:59;;;;;;;2.42;1.20;;;;;;;;;;10500727;28;20224;-83
2023/01/01 21:19:01;;;;;;;7.30;1.00;;;;;;;;;;10501077;28;20294;-80
2023/01/01 21:24:14;;;;;;;5.03;1.17;;;;;;;;;;10498407;28;20292;-79
2023/01/01 21:29:18;;;;;;;4.43;1.10;;;;;;;;;;10486166;28;20240;-80
2023/01/01 21:34:24;;;;;;;6.10;1.95;;;;;;;;;;10485740;28;20290;-79
2023/01/01 21:39:27;;;;;;;2.25;0.90;;;;;;;;;;10493424;28;20291;-80
2023/01/01 21:44:28;;;;;;;0.90;0.90;;;;;;;;;;10492480;28;20692;-80
2023/01/01 21:49:35;;;;;;;3.63;1.48;;;;;;;;;;10501258;28;20707;-79
2023/01/01 21:54:37;;;;;;;5.13;1.75;;;;;;;;;;10503226;28;20214;-80
2023/01/01 21:59:39;;;;;;;2.35;1.23;;;;;;;;;;10492878;28;20209;-81
2023/01/01 22:04:41;;;;;;;2.47;1.38;;;;;;;;;;10484619;28;20210;-80
2023/01/01 22:09:47;;;;;;;3.53;1.50;;;;;;;;;;10502255;28;20205;-80
2023/01/01 22:14:49;;;;;;;1.63;1.15;;;;;;;;;;10506166;28;20300;-79
2023/01/01 22:19:51;;;;;;;5.05;1.20;;;;;;;;;;10487249;28;20287;-80
2023/01/01 22:24:56;;;;;;;3.80;1.63;;;;;;;;;;10502467;28;20229;-80
2023/01/01 22:30:20;;;;;;;2.88;1.30;;;;;;;;;;10502684;28;20256;-80
2023/01/01 22:35:29;;;;;;;4.25;1.25;;;;;;;;;;10490288;28;20537;-80
2023/01/01 22:40:34;;;;;;;2.25;1.33;;;;;;;;;;10499251;28;20217;-80
2023/01/01 22:45:37;;;;;;;2.05;1.30;;;;;;;;;;10499997;28;20213;-79
2023/01/01 22:50:38;;;;;;;3.40;1.40;;;;;;;;;;10502256;28;20245;-81
2023/01/01 22:55:41;;;;;;;4.10;1.20;;;;;;;;;;10488868;28;20213;-80
2023/01/01 23:00:42;;;;;;;1.90;1.80;;;;;;;;;;10501046;28;20702;-80
2023/01/01 23:05:43;;;;;;;2.30;1.67;;;;;;;;;;10480170;28;20230;-80
2023/01/01 23:10:44;;;;;;;1.88;1.67;;;;;;;;;;10500244;28;20618;-80
2023/01/01 23:16:01;;;;;;;3.58;2.13;;;;;;;;;;10486717;28;20584;-81
2023/01/01 23:21:04;;;;;;;2.90;1.90;;;;;;;;;;10500007;28;20680;-80
2023/01/01 23:26:06;;;;;;;3.10;1.77;;;;;;;;;;10502134;28;20214;-80
2023/01/01 23:31:08;;;;;;;6.65;2.22;;;;;;;;;;10482114;28;20209;-80
2023/01/01 23:36:09;;;;;;;6.25;1.88;;;;;;;;;;10485062;28;20735;-80
2023/01/01 23:41:10;;;;;;;3.15;2.22;;;;;;;;;;10499056;28;20213;-80
2023/01/01 23:46:12;;;;;;;5.32;2.10;;;;;;;;;;10485125;28;20304;-80
2023/01/01 23:51:14;;;;;;;2.95;2.00;;;;;;;;;;10507268;28;20612;-80
2023/01/01 23:56:15;;;;;;;5.20;1.73;;;;;;;;;;10507950;28;20217;-80
